sensor_id;sensor_type;location;lat;lon;timestamp;pressure;altitude;pressure_sealevel;temperature;humidity
72721;BME280;60835;50.974;10.322;2022-08-21T00:02:21;98132.41;;;16.32;100.00
72721;BME280;60835;50.974;10.322;2022-08-21T00:04:49;98120.47;;;16.28;100.00
72721;BME280;60835;50.974;10.322;2022-08-21T00:07:22;98130.66;;;16.18;100.00
72721;BME280;60835;50.974;10.322;2022-08-21T00:09:51;98121.19;;;16.09;100.00
72721;BME280;60835;50.974;10.322;2022-08-21T00:12:18;98113.44;;;16.20;100.00
72721;BME280;60835;50.974;10.322;2022-08-21T00:14:46;98122.09;;;16.22;100.00
72721;BME280;60835;50.974;10.322;2022-08-21T00:17:13;98121.03;;;16.17;100.00
72721;BME280;60835;50.974;10.322;2022-08-21T00:19:39;98115.06;;;16.15;100.00
72721;BME280;60835;50.974;10.322;2022-08-21T00:22:06;98121.66;;;16.19;100.00
72721;BME280;60835;50.974;10.322;2022-08-21T00:24:32;98111.41;;;16.22;100.00
72721;BME280;60835;50.974;10.322;2022-08-21T00:26:59;98112.66;;;16.26;100.00
72721;BME280;60835;50.974;10.322;2022-08-21T00:29:26;98106.91;;;16.23;100.00
72721;BME280;60835;50.974;10.322;2022-08-21T00:31:53;98117.75;;;16.21;100.00
72721;BME280;60835;50.974;10.322;2022-08-21T00:34:20;98125.97;;;16.20;100.00
72721;BME280;60835;50.974;10.322;2022-08-21T00:36:46;98132.56;;;16.24;100.00
72721;BME280;60835;50.974;10.322;2022-08-21T00:39:14;98136.06;;;16.31;100.00
72721;BME280;60835;50.974;10.322;2022-08-21T00:41:43;98131.38;;;16.33;100.00
72721;BME280;60835;50.974;10.322;2022-08-21T00:44:12;98127.84;;;16.26;100.00
72721;BME280;60835;50.974;10.322;2022-08-21T00:46:39;98137.00;;;16.10;100.00
72721;BME280;60835;50.974;10.322;2022-08-21T00:49:07;98140.84;;;16.01;100.00
72721;BME280;60835;50.974;10.322;2022-08-21T00:51:50;98137.28;;;15.94;100.00
72721;BME280;60835;50.974;10.322;2022-08-21T00:54:20;98128.81;;;15.84;100.00
72721;BME280;60835;50.974;10.322;2022-08-21T00:56:53;98129.25;;;15.88;100.00
72721;BME280;60835;50.974;10.322;2022-08-21T00:59:25;98127.22;;;15.90;100.00
72721;BME280;60835;50.974;10.322;2022-08-21T01:01:52;98121.03;;;15.82;100.00
72721;BME280;60835;50.974;10.322;2022-08-21T01:04:20;98125.56;;;15.89;100.00
72721;BME280;60835;50.974;10.322;2022-08-21T01:06:48;98127.56;;;15.80;100.00
72721;BME280;60835;50.974;10.322;2022-08-21T01:09:18;98121.84;;;15.83;100.00
72721;BME280;60835;50.974;10.322;2022-08-21T01:11:46;98123.84;;;15.74;100.00
72721;BME280;60835;50.974;10.322;2022-08-21T01:14:13;98129.81;;;15.76;100.00
72721;BME280;60835;50.974;10.322;2022-08-21T01:16:43;98123.75;;;15.61;100.00
72721;BME280;60835;50.974;10.322;2022-08-21T01:19:11;98111.03;;;15.63;100.00
72721;BME280;60835;50.974;10.322;2022-08-21T01:21:38;98116.81;;;15.67;100.00
72721;BME280;60835;50.974;10.322;2022-08-21T01:24:05;98122.94;;;15.67;100.00
72721;BME280;60835;50.974;10.322;2022-08-21T01:26:33;98122.53;;;15.64;100.00
72721;BME280;60835;50.974;10.322;2022-08-21T01:29:39;98121.84;;;15.55;100.00
72721;BME280;60835;50.974;10.322;2022-08-21T01:32:12;98117.94;;;15.51;100.00
72721;BME280;60835;50.974;10.322;2022-08-21T01:34:42;98116.25;;;15.50;100.00
72721;BME280;60835;50.974;10.322;2022-08-21T01:37:14;98115.81;;;15.47;100.00
72721;BME280;60835;50.974;10.322;2022-08-21T01:39:44;98120.03;;;15.41;100.00
72721;BME280;60835;50.974;10.322;2022-08-21T01:42:12;98120.31;;;15.46;100.00
72721;BME280;60835;50.974;10.322;2022-08-21T01:44:40;98107.16;;;15.45;100.00
72721;BME280;60835;50.974;10.322;2022-08-21T01:47:10;98107.94;;;15.39;100.00
72721;BME280;60835;50.974;10.322;2022-08-21T01:49:38;98106.28;;;15.38;100.00
72721;BME280;60835;50.974;10.322;2022-08-21T01:52:06;98115.09;;;15.38;100.00
72721;BME280;60835;50.974;10.322;2022-08-21T01:54:35;98093.53;;;15.33;100.00
72721;BME280;60835;50.974;10.322;2022-08-21T01:57:03;98104.69;;;15.43;100.00
72721;BME280;60835;50.974;10.322;2022-08-21T01:59:30;98098.53;;;15.43;100.00
72721;BME280;60835;50.974;10.322;2022-08-21T02:01:59;98101.84;;;15.45;100.00
72721;BME280;60835;50.974;10.322;2022-08-21T02:04:27;98111.66;;;15.44;100.00
72721;BME280;60835;50.974;10.322;2022-08-21T02:06:58;98116.44;;;15.27;100.00
72721;BME280;60835;50.974;10.322;2022-08-21T02:09:27;98113.97;;;15.26;100.00
72721;BME280;60835;50.974;10.322;2022-08-21T02:11:57;98110.53;;;15.32;100.00
72721;BME280;60835;50.974;10.322;2022-08-21T02:14:29;98118.91;;;15.29;100.00
72721;BME280;60835;50.974;10.322;2022-08-21T02:16:58;98121.22;;;15.32;100.00
72721;BME280;60835;50.974;10.322;2022-08-21T02:19:36;98109.91;;;15.30;100.00
72721;BME280;60835;50.974;10.322;2022-08-21T02:22:06;98109.50;;;15.33;100.00
72721;BME280;60835;50.974;10.322;2022-08-21T02:24:33;98119.78;;;15.36;100.00
72721;BME280;60835;50.974;10.322;2022-08-21T02:27:00;98090.22;;;15.31;100.00
72721;BME280;60835;50.974;10.322;2022-08-21T02:29:27;98110.59;;;15.39;100.00
72721;BME280;60835;50.974;10.322;2022-08-21T02:31:54;98112.41;;;15.38;100.00
72721;BME280;60835;50.974;10.322;2022-08-21T02:34:21;98107.63;;;15.27;100.00
72721;BME280;60835;50.974;10.322;2022-08-21T02:36:54;98105.84;;;15.13;100.00
72721;BME280;60835;50.974;10.322;2022-08-21T02:39:25;98114.44;;;15.08;100.00
72721;BME280;60835;50.974;10.322;2022-08-21T02:41:52;98116.97;;;14.95;100.00
72721;BME280;60835;50.974;10.322;2022-08-21T02:44:19;98112.16;;;15.05;100.00
72721;BME280;60835;50.974;10.322;2022-08-21T02:46:45;98117.00;;;15.02;100.00
72721;BME280;60835;50.974;10.322;2022-08-21T02:49:11;98114.47;;;14.94;100.00
72721;BME280;60835;50.974;10.322;2022-08-21T02:51:39;98112.19;;;14.91;100.00
72721;BME280;60835;50.974;10.322;2022-08-21T02:54:06;98102.94;;;14.87;100.00
72721;BME280;60835;50.974;10.322;2022-08-21T02:56:32;98110.44;;;14.98;100.00
72721;BME280;60835;50.974;10.322;2022-08-21T02:59:00;98109.25;;;14.86;100.00
72721;BME280;60835;50.974;10.322;2022-08-21T03:01:27;98109.53;;;14.91;100.00
72721;BME280;60835;50.974;10.322;2022-08-21T03:03:53;98106.06;;;14.90;100.00
72721;BME280;60835;50.974;10.322;2022-08-21T03:06:21;98111.56;;;14.89;100.00
72721;BME280;60835;50.974;10.322;2022-08-21T03:08:49;98108.88;;;14.89;100.00
72721;BME280;60835;50.974;10.322;2022-08-21T03:11:17;98108.63;;;14.84;100.00
72721;BME280;60835;50.974;10.322;2022-08-21T03:13:44;98116.88;;;14.89;100.00
72721;BME280;60835;50.974;10.322;2022-08-21T03:16:11;98115.47;;;14.72;100.00
72721;BME280;60835;50.974;10.322;2022-08-21T03:18:41;98113.66;;;14.57;100.00
72721;BME280;60835;50.974;10.322;2022-08-21T03:21:09;98110.28;;;14.63;100.00
72721;BME280;60835;50.974;10.322;2022-08-21T03:23:35;98098.31;;;14.59;100.00
72721;BME280;60835;50.974;10.322;2022-08-21T03:26:03;98101.50;;;14.70;100.00
72721;BME280;60835;50.974;10.322;2022-08-21T03:28:30;98104.16;;;14.70;100.00
72721;BME280;60835;50.974;10.322;2022-08-21T03:30:59;98110.00;;;14.58;100.00
72721;BME280;60835;50.974;10.322;2022-08-21T03:33:26;98110.66;;;14.46;100.00
72721;BME280;60835;50.974;10.322;2022-08-21T03:36:06;98094.88;;;14.30;100.00
72721;BME280;60835;50.974;10.322;2022-08-21T03:38:34;98109.47;;;14.48;100.00
72721;BME280;60835;50.974;10.322;2022-08-21T03:41:04;98108.72;;;14.54;100.00
72721;BME280;60835;50.974;10.322;2022-08-21T03:43:31;98109.19;;;14.58;100.00
72721;BME280;60835;50.974;10.322;2022-08-21T03:46:04;98112.47;;;14.60;100.00
72721;BME280;60835;50.974;10.322;2022-08-21T03:48:32;98114.25;;;14.53;100.00
72721;BME280;60835;50.974;10.322;2022-08-21T03:50:59;98107.97;;;14.60;100.00
72721;BME280;60835;50.974;10.322;2022-08-21T03:53:29;98101.00;;;14.59;100.00
72721;BME280;60835;50.974;10.322;2022-08-21T03:55:59;98117.19;;;14.43;100.00
72721;BME280;60835;50.974;10.322;2022-08-21T03:58:28;98111.31;;;14.33;100.00
72721;BME280;60835;50.974;10.322;2022-08-21T04:01:00;98119.13;;;14.35;100.00
72721;BME280;60835;50.974;10.322;2022-08-21T04:03:29;98115.81;;;14.47;100.00
72721;BME280;60835;50.974;10.322;2022-08-21T04:05:57;98115.03;;;14.53;100.00
72721;BME280;60835;50.974;10.322;2022-08-21T04:08:24;98122.66;;;14.56;100.00
72721;BME280;60835;50.974;10.322;2022-08-21T04:10:52;98122.63;;;14.71;100.00
72721;BME280;60835;50.974;10.322;2022-08-21T04:13:20;98131.84;;;14.69;100.00
72721;BME280;60835;50.974;10.322;2022-08-21T04:15:47;98130.69;;;14.78;100.00
72721;BME280;60835;50.974;10.322;2022-08-21T04:18:16;98132.97;;;14.81;100.00
72721;BME280;60835;50.974;10.322;2022-08-21T04:20:45;98144.09;;;14.70;100.00
72721;BME280;60835;50.974;10.322;2022-08-21T04:23:16;98135.63;;;14.81;100.00
72721;BME280;60835;50.974;10.322;2022-08-21T04:25:49;98147.03;;;14.75;100.00
72721;BME280;60835;50.974;10.322;2022-08-21T04:28:16;98144.41;;;14.60;100.00
72721;BME280;60835;50.974;10.322;2022-08-21T04:30:44;98149.06;;;14.73;100.00
72721;BME280;60835;50.974;10.322;2022-08-21T04:33:10;98144.91;;;14.85;100.00
72721;BME280;60835;50.974;10.322;2022-08-21T04:35:40;98139.50;;;14.78;100.00
72721;BME280;60835;50.974;10.322;2022-08-21T04:38:08;98118.31;;;14.70;100.00
72721;BME280;60835;50.974;10.322;2022-08-21T04:40:35;98143.47;;;14.82;100.00
72721;BME280;60835;50.974;10.322;2022-08-21T04:43:06;98147.44;;;14.72;100.00
72721;BME280;60835;50.974;10.322;2022-08-21T04:45:41;98158.88;;;14.72;100.00
72721;BME280;60835;50.974;10.322;2022-08-21T04:48:17;98162.66;;;14.78;100.00
72721;BME280;60835;50.974;10.322;2022-08-21T04:53:26;98153.44;;;14.95;100.00
72721;BME280;60835;50.974;10.322;2022-08-21T04:55:58;98175.47;;;14.53;100.00
72721;BME280;60835;50.974;10.322;2022-08-21T04:58:28;98181.41;;;14.40;100.00
72721;BME280;60835;50.974;10.322;2022-08-21T05:00:57;98180.78;;;14.38;100.00
72721;BME280;60835;50.974;10.322;2022-08-21T05:03:24;98176.84;;;14.34;100.00
72721;BME280;60835;50.974;10.322;2022-08-21T05:05:51;98173.34;;;14.48;100.00
72721;BME280;60835;50.974;10.322;2022-08-21T05:08:21;98180.31;;;14.49;100.00
72721;BME280;60835;50.974;10.322;2022-08-21T05:10:49;98177.19;;;14.60;100.00
72721;BME280;60835;50.974;10.322;2022-08-21T05:13:17;98182.09;;;14.93;100.00
72721;BME280;60835;50.974;10.322;2022-08-21T05:15:44;98182.53;;;14.96;100.00
72721;BME280;60835;50.974;10.322;2022-08-21T05:18:11;98195.63;;;14.77;100.00
72721;BME280;60835;50.974;10.322;2022-08-21T05:20:37;98194.84;;;14.83;100.00
72721;BME280;60835;50.974;10.322;2022-08-21T05:23:09;98191.97;;;14.99;100.00
72721;BME280;60835;50.974;10.322;2022-08-21T05:25:36;98205.41;;;14.91;100.00
72721;BME280;60835;50.974;10.322;2022-08-21T05:28:04;98207.81;;;14.86;100.00
72721;BME280;60835;50.974;10.322;2022-08-21T05:30:33;98206.38;;;15.04;100.00
72721;BME280;60835;50.974;10.322;2022-08-21T05:33:02;98206.75;;;15.16;100.00
72721;BME280;60835;50.974;10.322;2022-08-21T05:35:29;98207.50;;;15.31;100.00
72721;BME280;60835;50.974;10.322;2022-08-21T05:37:56;98214.63;;;15.45;100.00
72721;BME280;60835;50.974;10.322;2022-08-21T05:40:24;98229.97;;;15.22;100.00
72721;BME280;60835;50.974;10.322;2022-08-21T05:42:53;98229.00;;;15.08;100.00
72721;BME280;60835;50.974;10.322;2022-08-21T05:45:23;98222.84;;;15.08;100.00
72721;BME280;60835;50.974;10.322;2022-08-21T05:48:15;98219.38;;;14.93;100.00
72721;BME280;60835;50.974;10.322;2022-08-21T05:50:43;98210.53;;;15.07;100.00
72721;BME280;60835;50.974;10.322;2022-08-21T05:53:12;98212.09;;;15.01;100.00
72721;BME280;60835;50.974;10.322;2022-08-21T05:55:40;98217.34;;;14.95;100.00
72721;BME280;60835;50.974;10.322;2022-08-21T05:58:19;98210.16;;;15.10;100.00
72721;BME280;60835;50.974;10.322;2022-08-21T06:00:49;98214.72;;;15.16;100.00
72721;BME280;60835;50.974;10.322;2022-08-21T06:03:19;98203.63;;;15.48;100.00
72721;BME280;60835;50.974;10.322;2022-08-21T06:05:46;98206.50;;;15.96;100.00
72721;BME280;60835;50.974;10.322;2022-08-21T06:08:14;98218.06;;;16.71;100.00
72721;BME280;60835;50.974;10.322;2022-08-21T06:10:41;98270.69;;;17.85;100.00
72721;BME280;60835;50.974;10.322;2022-08-21T06:13:09;98345.81;;;17.77;100.00
72721;BME280;60835;50.974;10.322;2022-08-21T06:15:35;98377.00;;;18.31;100.00
72721;BME280;60835;50.974;10.322;2022-08-21T06:18:03;98390.91;;;17.80;100.00
72721;BME280;60835;50.974;10.322;2022-08-21T06:20:30;98393.13;;;18.50;100.00
72721;BME280;60835;50.974;10.322;2022-08-21T06:22:56;98471.44;;;19.51;100.00
72721;BME280;60835;50.974;10.322;2022-08-21T06:25:23;98541.13;;;19.83;100.00
72721;BME280;60835;50.974;10.322;2022-08-21T06:27:51;98535.81;;;19.31;100.00
72721;BME280;60835;50.974;10.322;2022-08-21T06:30:20;98554.19;;;19.27;100.00
72721;BME280;60835;50.974;10.322;2022-08-21T06:32:47;98552.94;;;19.76;100.00
72721;BME280;60835;50.974;10.322;2022-08-21T06:35:16;98586.91;;;20.21;100.00
72721;BME280;60835;50.974;10.322;2022-08-21T06:37:43;98617.00;;;20.49;100.00
72721;BME280;60835;50.974;10.322;2022-08-21T06:40:12;98631.41;;;21.06;100.00
72721;BME280;60835;50.974;10.322;2022-08-21T06:42:39;98642.84;;;20.95;100.00
72721;BME280;60835;50.974;10.322;2022-08-21T06:45:09;98638.44;;;20.62;100.00
72721;BME280;60835;50.974;10.322;2022-08-21T06:47:35;98665.03;;;21.28;100.00
72721;BME280;60835;50.974;10.322;2022-08-21T06:50:03;98683.69;;;21.79;100.00
72721;BME280;60835;50.974;10.322;2022-08-21T06:52:34;98695.78;;;22.01;100.00
72721;BME280;60835;50.974;10.322;2022-08-21T06:55:08;98702.38;;;21.74;100.00
72721;BME280;60835;50.974;10.322;2022-08-21T06:57:35;98707.81;;;21.99;100.00
72721;BME280;60835;50.974;10.322;2022-08-21T07:00:05;98712.34;;;21.73;100.00
72721;BME280;60835;50.974;10.322;2022-08-21T07:02:33;98721.56;;;22.94;100.00
72721;BME280;60835;50.974;10.322;2022-08-21T07:05:00;98774.22;;;23.33;100.00
72721;BME280;60835;50.974;10.322;2022-08-21T07:07:44;98738.63;;;22.52;100.00
72721;BME280;60835;50.974;10.322;2022-08-21T07:10:10;98723.25;;;23.25;100.00
72721;BME280;60835;50.974;10.322;2022-08-21T07:12:49;98756.66;;;23.60;100.00
72721;BME280;60835;50.974;10.322;2022-08-21T07:15:17;98791.53;;;24.03;100.00
72721;BME280;60835;50.974;10.322;2022-08-21T07:17:44;98803.81;;;24.17;100.00
72721;BME280;60835;50.974;10.322;2022-08-21T07:20:10;98806.56;;;24.52;100.00
72721;BME280;60835;50.974;10.322;2022-08-21T07:22:38;98799.50;;;24.40;100.00
72721;BME280;60835;50.974;10.322;2022-08-21T07:25:07;98852.19;;;25.30;100.00
72721;BME280;60835;50.974;10.322;2022-08-21T07:27:34;98818.97;;;24.83;100.00
72721;BME280;60835;50.974;10.322;2022-08-21T07:30:03;98834.91;;;25.19;100.00
72721;BME280;60835;50.974;10.322;2022-08-21T07:32:31;98845.69;;;25.42;100.00
72721;BME280;60835;50.974;10.322;2022-08-21T07:35:00;98868.50;;;25.70;100.00
72721;BME280;60835;50.974;10.322;2022-08-21T07:37:27;98869.09;;;25.60;100.00
72721;BME280;60835;50.974;10.322;2022-08-21T07:39:53;98870.25;;;26.04;100.00
72721;BME280;60835;50.974;10.322;2022-08-21T07:42:21;98856.66;;;25.48;100.00
72721;BME280;60835;50.974;10.322;2022-08-21T07:44:50;98871.03;;;26.16;100.00
72721;BME280;60835;50.974;10.322;2022-08-21T07:47:21;98930.38;;;27.41;100.00
72721;BME280;60835;50.974;10.322;2022-08-21T07:50:07;98950.69;;;27.55;100.00
72721;BME280;60835;50.974;10.322;2022-08-21T07:52:34;98938.38;;;27.14;100.00
72721;BME280;60835;50.974;10.322;2022-08-21T07:55:00;98956.41;;;27.20;100.00
72721;BME280;60835;50.974;10.322;2022-08-21T07:57:35;98960.78;;;27.21;100.00
72721;BME280;60835;50.974;10.322;2022-08-21T08:00:04;98985.44;;;28.34;100.00
72721;BME280;60835;50.974;10.322;2022-08-21T08:02:32;98913.28;;;25.61;100.00
72721;BME280;60835;50.974;10.322;2022-08-21T08:05:07;98954.25;;;27.22;100.00
72721;BME280;60835;50.974;10.322;2022-08-21T08:07:35;98981.91;;;27.36;100.00
72721;BME280;60835;50.974;10.322;2022-08-21T08:10:05;98923.84;;;25.85;100.00
72721;BME280;60835;50.974;10.322;2022-08-21T08:12:34;98949.25;;;27.14;100.00
72721;BME280;60835;50.974;10.322;2022-08-21T08:15:03;98993.16;;;28.43;100.00
72721;BME280;60835;50.974;10.322;2022-08-21T08:17:30;99013.03;;;28.96;100.00
72721;BME280;60835;50.974;10.322;2022-08-21T08:19:58;98995.75;;;27.89;100.00
72721;BME280;60835;50.974;10.322;2022-08-21T08:22:27;99013.81;;;28.65;100.00
72721;BME280;60835;50.974;10.322;2022-08-21T08:24:53;98995.31;;;28.41;100.00
72721;BME280;60835;50.974;10.322;2022-08-21T08:27:20;99014.13;;;29.22;100.00
72721;BME280;60835;50.974;10.322;2022-08-21T08:29:48;99007.41;;;28.28;100.00
72721;BME280;60835;50.974;10.322;2022-08-21T08:32:15;99009.72;;;28.89;100.00
72721;BME280;60835;50.974;10.322;2022-08-21T08:34:41;99020.31;;;29.86;100.00
72721;BME280;60835;50.974;10.322;2022-08-21T08:37:09;99014.63;;;30.03;100.00
72721;BME280;60835;50.974;10.322;2022-08-21T08:39:37;99028.50;;;30.58;100.00
72721;BME280;60835;50.974;10.322;2022-08-21T08:45:02;98997.53;;;28.70;100.00
72721;BME280;60835;50.974;10.322;2022-08-21T08:47:31;99008.00;;;29.47;100.00
72721;BME280;60835;50.974;10.322;2022-08-21T08:52:40;99026.44;;;31.01;100.00
72721;BME280;60835;50.974;10.322;2022-08-21T08:55:13;99026.09;;;30.67;100.00
72721;BME280;60835;50.974;10.322;2022-08-21T08:57:44;99038.66;;;32.04;97.30
72721;BME280;60835;50.974;10.322;2022-08-21T09:00:21;99027.22;;;31.82;95.28
72721;BME280;60835;50.974;10.322;2022-08-21T09:02:51;99034.03;;;32.00;92.00
72721;BME280;60835;50.974;10.322;2022-08-21T09:05:23;99034.88;;;31.85;86.31
72721;BME280;60835;50.974;10.322;2022-08-21T09:08:31;99035.34;;;32.17;84.21
72721;BME280;60835;50.974;10.322;2022-08-21T09:16:56;99035.75;;;31.15;77.38
72721;BME280;60835;50.974;10.322;2022-08-21T09:22:29;99033.28;;;31.49;81.69
72721;BME280;60835;50.974;10.322;2022-08-21T09:25:11;99029.59;;;32.73;82.31
72721;BME280;60835;50.974;10.322;2022-08-21T09:27:39;99032.28;;;34.32;64.41
72721;BME280;60835;50.974;10.322;2022-08-21T09:30:07;99029.94;;;31.87;73.72
72721;BME280;60835;50.974;10.322;2022-08-21T09:32:36;99020.63;;;30.67;85.11
72721;BME280;60835;50.974;10.322;2022-08-21T09:35:11;99030.13;;;29.19;88.55
72721;BME280;60835;50.974;10.322;2022-08-21T09:40:45;99026.69;;;31.65;76.96
72721;BME280;60835;50.974;10.322;2022-08-21T09:43:22;99020.63;;;30.67;81.42
72721;BME280;60835;50.974;10.322;2022-08-21T09:46:24;99024.78;;;30.12;76.99
72721;BME280;60835;50.974;10.322;2022-08-21T09:48:54;99025.53;;;31.96;72.85
72721;BME280;60835;50.974;10.322;2022-08-21T09:51:31;99018.16;;;31.91;68.60
72721;BME280;60835;50.974;10.322;2022-08-21T09:54:12;99007.81;;;34.54;60.38
72721;BME280;60835;50.974;10.322;2022-08-21T09:56:54;99017.88;;;33.68;61.54
72721;BME280;60835;50.974;10.322;2022-08-21T09:59:43;99004.28;;;32.42;63.82
72721;BME280;60835;50.974;10.322;2022-08-21T10:02:29;99015.50;;;31.51;71.85
72721;BME280;60835;50.974;10.322;2022-08-21T10:05:19;99019.56;;;30.83;73.11
72721;BME280;60835;50.974;10.322;2022-08-21T10:07:46;98992.63;;;30.20;80.73
72721;BME280;60835;50.974;10.322;2022-08-21T10:10:28;99007.03;;;28.94;84.26
72721;BME280;60835;50.974;10.322;2022-08-21T10:13:13;99004.19;;;29.43;83.26
72721;BME280;60835;50.974;10.322;2022-08-21T10:21:05;98998.50;;;28.32;89.15
72721;BME280;60835;50.974;10.322;2022-08-21T10:26:18;98984.75;;;28.01;99.35
72721;BME280;60835;50.974;10.322;2022-08-21T10:29:12;98975.50;;;27.58;100.00
72721;BME280;60835;50.974;10.322;2022-08-21T10:48:07;98997.31;;;33.08;67.91
72721;BME280;60835;50.974;10.322;2022-08-21T10:50:44;98991.97;;;31.60;66.13
72721;BME280;60835;50.974;10.322;2022-08-21T10:53:36;98994.78;;;29.24;80.06
72721;BME280;60835;50.974;10.322;2022-08-21T10:58:45;98994.44;;;30.81;70.30
72721;BME280;60835;50.974;10.322;2022-08-21T11:01:31;98990.28;;;30.63;67.89
72721;BME280;60835;50.974;10.322;2022-08-21T11:06:42;98963.38;;;32.61;60.47
72721;BME280;60835;50.974;10.322;2022-08-21T11:09:20;98974.03;;;33.35;51.10
72721;BME280;60835;50.974;10.322;2022-08-21T11:12:17;98966.19;;;33.57;50.49
72721;BME280;60835;50.974;10.322;2022-08-21T11:15:03;98970.84;;;32.45;51.68
72721;BME280;60835;50.974;10.322;2022-08-21T11:17:38;98966.41;;;32.05;53.55
72721;BME280;60835;50.974;10.322;2022-08-21T11:26:08;98969.88;;;32.75;52.27
72721;BME280;60835;50.974;10.322;2022-08-21T11:28:44;98966.19;;;32.45;55.67
72721;BME280;60835;50.974;10.322;2022-08-21T11:31:32;98978.13;;;32.16;58.91
72721;BME280;60835;50.974;10.322;2022-08-21T11:34:35;98972.31;;;31.28;59.59
72721;BME280;60835;50.974;10.322;2022-08-21T11:43:14;98970.09;;;32.78;55.96
72721;BME280;60835;50.974;10.322;2022-08-21T11:48:44;98962.56;;;32.11;55.15
72721;BME280;60835;50.974;10.322;2022-08-21T11:51:19;98956.19;;;30.76;60.63
72721;BME280;60835;50.974;10.322;2022-08-21T11:53:58;98961.91;;;30.85;61.36
72721;BME280;60835;50.974;10.322;2022-08-21T11:56:47;98960.81;;;31.31;56.55
72721;BME280;60835;50.974;10.322;2022-08-21T11:59:21;98953.28;;;31.97;52.99
72721;BME280;60835;50.974;10.322;2022-08-21T12:01:52;98939.56;;;34.42;49.76
72721;BME280;60835;50.974;10.322;2022-08-21T12:04:31;98941.75;;;35.15;43.79
72721;BME280;60835;50.974;10.322;2022-08-21T12:07:16;98932.56;;;35.92;41.22
72721;BME280;60835;50.974;10.322;2022-08-21T12:09:55;98938.19;;;34.96;43.36
72721;BME280;60835;50.974;10.322;2022-08-21T12:12:28;98939.31;;;33.78;43.17
72721;BME280;60835;50.974;10.322;2022-08-21T12:15:23;98935.56;;;35.04;39.83
72721;BME280;60835;50.974;10.322;2022-08-21T12:18:03;98930.84;;;32.88;41.73
72721;BME280;60835;50.974;10.322;2022-08-21T12:20:44;98945.97;;;32.36;47.45
72721;BME280;60835;50.974;10.322;2022-08-21T12:23:28;98941.09;;;32.28;49.29
72721;BME280;60835;50.974;10.322;2022-08-21T12:26:01;98944.47;;;32.10;52.36
72721;BME280;60835;50.974;10.322;2022-08-21T12:28:31;98943.94;;;32.13;52.96
72721;BME280;60835;50.974;10.322;2022-08-21T12:30:58;98939.22;;;31.34;55.53
72721;BME280;60835;50.974;10.322;2022-08-21T12:33:35;98934.88;;;30.58;58.88
72721;BME280;60835;50.974;10.322;2022-08-21T12:36:15;98935.94;;;30.42;62.12
72721;BME280;60835;50.974;10.322;2022-08-21T12:38:56;98931.84;;;29.77;60.76
72721;BME280;60835;50.974;10.322;2022-08-21T12:41:45;98934.75;;;30.17;59.80
72721;BME280;60835;50.974;10.322;2022-08-21T12:44:37;98934.13;;;30.00;61.38
72721;BME280;60835;50.974;10.322;2022-08-21T12:47:14;98925.31;;;29.78;62.97
72721;BME280;60835;50.974;10.322;2022-08-21T12:52:34;98919.31;;;30.79;60.44
72721;BME280;60835;50.974;10.322;2022-08-21T12:55:05;98924.34;;;29.11;63.97
72721;BME280;60835;50.974;10.322;2022-08-21T12:57:36;98924.81;;;29.03;62.76
72721;BME280;60835;50.974;10.322;2022-08-21T13:00:07;98914.78;;;29.45;63.19
72721;BME280;60835;50.974;10.322;2022-08-21T13:02:46;98920.16;;;28.98;60.81
72721;BME280;60835;50.974;10.322;2022-08-21T13:05:23;98922.91;;;28.66;58.35
72721;BME280;60835;50.974;10.322;2022-08-21T13:07:50;98923.41;;;28.36;61.73
72721;BME280;60835;50.974;10.322;2022-08-21T13:10:27;98924.28;;;27.94;61.90
72721;BME280;60835;50.974;10.322;2022-08-21T13:12:56;98921.47;;;28.90;59.89
72721;BME280;60835;50.974;10.322;2022-08-21T13:15:32;98920.63;;;28.05;62.35
72721;BME280;60835;50.974;10.322;2022-08-21T13:18:04;98906.16;;;28.26;62.65
72721;BME280;60835;50.974;10.322;2022-08-21T13:20:38;98911.03;;;29.61;59.65
72721;BME280;60835;50.974;10.322;2022-08-21T13:23:24;98905.06;;;30.76;55.26
72721;BME280;60835;50.974;10.322;2022-08-21T13:25:51;98914.00;;;30.22;52.40
72721;BME280;60835;50.974;10.322;2022-08-21T13:28:19;98907.56;;;30.98;52.77
72721;BME280;60835;50.974;10.322;2022-08-21T13:30:52;98899.63;;;30.46;52.77
72721;BME280;60835;50.974;10.322;2022-08-21T13:33:22;98911.13;;;28.92;56.75
72721;BME280;60835;50.974;10.322;2022-08-21T13:36:14;98906.34;;;28.73;59.11
72721;BME280;60835;50.974;10.322;2022-08-21T13:38:44;98902.09;;;28.87;61.12
72721;BME280;60835;50.974;10.322;2022-08-21T13:41:30;98907.81;;;28.85;61.89
72721;BME280;60835;50.974;10.322;2022-08-21T13:44:01;98909.84;;;28.15;66.64
72721;BME280;60835;50.974;10.322;2022-08-21T13:46:31;98908.09;;;28.57;65.63
72721;BME280;60835;50.974;10.322;2022-08-21T13:49:03;98897.50;;;28.29;66.92
72721;BME280;60835;50.974;10.322;2022-08-21T13:51:34;98902.16;;;28.07;67.16
72721;BME280;60835;50.974;10.322;2022-08-21T13:54:32;98907.59;;;28.07;68.58
72721;BME280;60835;50.974;10.322;2022-08-21T13:57:15;98891.06;;;27.92;67.40
72721;BME280;60835;50.974;10.322;2022-08-21T13:59:42;98901.41;;;28.38;67.97
72721;BME280;60835;50.974;10.322;2022-08-21T14:02:20;98904.13;;;28.38;64.37
72721;BME280;60835;50.974;10.322;2022-08-21T14:04:55;98905.19;;;28.64;63.36
72721;BME280;60835;50.974;10.322;2022-08-21T14:07:29;98895.06;;;28.91;62.09
72721;BME280;60835;50.974;10.322;2022-08-21T14:10:06;98884.31;;;29.16;60.11
72721;BME280;60835;50.974;10.322;2022-08-21T14:15:17;98888.25;;;28.88;59.25
72721;BME280;60835;50.974;10.322;2022-08-21T14:17:45;98885.47;;;29.20;57.93